Layton, Utah
Current Conditions -  °F | °C
As of 4:58 AM on Friday 24 Oct 2014 (Local Time) from KHIF Reporting Station
Clear Clear  
Wind Chill: 55°   Ceiling: Unl
Heat Index: 55°   Visibility: 10mi
Dew Point: 32°   Wind: 5mph
Humidity: 41%   Direction: 140°SE
Pressure: 30.13"   Gusts: NA
Location:  41.07°N, 111.96°W
Report Text: KHIF 241058Z AUTO 14004KT 10SM CLR 13/00 A3013 RMK AO2 SLP163 T01301000
Loading
Personal Weather Stations






























Interactive Weather Map
Tropical Storm Tracking
New forecast layout! Learn more

10-Day Weather Forecast

Advertisements
Track Severe Weather on mobile